Hauula, Hawaii
Current Conditions -  °F | °C
As of 2:57 AM on Monday 20 Oct 2014 (Local Time) from PHNG Reporting Station
Scattered Clouds Scattered Clouds  
Wind Chill: 79°   Ceiling: Unl
Heat Index: 82°   Visibility: 10mi
Dew Point: 71°   Wind: 12mph
Humidity: 77%   Direction: 110°ESE
Pressure: 29.96"   Gusts: 20mph
Location:  21.6°N, 157.9°W
Report Text: PHNG 201257Z 11010G17KT 080V150 10SM FEW024 SCT032 26/22 A2996 RMK AO2 RAE25 SLP141 P0000 T02610217 $
Loading
Personal Weather Stations






























Interactive Weather Map
Tropical Storm Tracking
New forecast layout! Learn more

10-Day Weather Forecast

Advertisements
Track Severe Weather on mobile